sensor_id;sensor_type;location;lat;lon;timestamp;temperature;humidity
53711;DHT22;39605;52.704;6.752;2022-08-01T00:00:21;18.20;99.90
53711;DHT22;39605;52.704;6.752;2022-08-01T00:02:47;18.20;99.90
53711;DHT22;39605;52.704;6.752;2022-08-01T00:05:13;18.20;99.90
53711;DHT22;39605;52.704;6.752;2022-08-01T00:07:39;18.20;99.90
53711;DHT22;39605;52.704;6.752;2022-08-01T00:10:09;18.20;99.90
53711;DHT22;39605;52.704;6.752;2022-08-01T00:12:36;18.20;99.90
53711;DHT22;39605;52.704;6.752;2022-08-01T00:15:02;18.20;99.90
53711;DHT22;39605;52.704;6.752;2022-08-01T00:17:28;18.20;99.90
53711;DHT22;39605;52.704;6.752;2022-08-01T00:19:54;18.20;99.90
53711;DHT22;39605;52.704;6.752;2022-08-01T00:22:19;18.20;99.90
53711;DHT22;39605;52.704;6.752;2022-08-01T00:24:45;18.20;99.90
53711;DHT22;39605;52.704;6.752;2022-08-01T00:27:10;18.20;99.90
53711;DHT22;39605;52.704;6.752;2022-08-01T00:29:36;18.20;99.90
53711;DHT22;39605;52.704;6.752;2022-08-01T00:32:02;18.20;99.90
53711;DHT22;39605;52.704;6.752;2022-08-01T00:34:27;18.20;99.90
53711;DHT22;39605;52.704;6.752;2022-08-01T00:36:53;18.10;99.90
53711;DHT22;39605;52.704;6.752;2022-08-01T00:39:19;18.20;99.90
53711;DHT22;39605;52.704;6.752;2022-08-01T00:41:44;18.20;99.90
53711;DHT22;39605;52.704;6.752;2022-08-01T00:44:10;18.10;99.90
53711;DHT22;39605;52.704;6.752;2022-08-01T00:46:36;18.20;99.90
53711;DHT22;39605;52.704;6.752;2022-08-01T00:49:02;18.10;99.90
53711;DHT22;39605;52.704;6.752;2022-08-01T00:51:27;18.10;99.90
53711;DHT22;39605;52.704;6.752;2022-08-01T00:53:54;18.10;99.90
53711;DHT22;39605;52.704;6.752;2022-08-01T00:56:21;18.20;99.90
53711;DHT22;39605;52.704;6.752;2022-08-01T00:58:47;18.10;99.90
53711;DHT22;39605;52.704;6.752;2022-08-01T01:01:13;18.20;99.90
53711;DHT22;39605;52.704;6.752;2022-08-01T01:03:38;18.20;99.90
53711;DHT22;39605;52.704;6.752;2022-08-01T01:06:15;18.10;99.90
53711;DHT22;39605;52.704;6.752;2022-08-01T01:11:47;18.10;99.90
53711;DHT22;39605;52.704;6.752;2022-08-01T01:14:30;18.20;99.90
53711;DHT22;39605;52.704;6.752;2022-08-01T01:17:00;18.10;99.90
53711;DHT22;39605;52.704;6.752;2022-08-01T01:19:30;18.10;99.90
53711;DHT22;39605;52.704;6.752;2022-08-01T01:30:15;18.10;99.90
53711;DHT22;39605;52.704;6.752;2022-08-01T01:32:44;18.10;99.90
53711;DHT22;39605;52.704;6.752;2022-08-01T01:35:15;18.10;99.90
53711;DHT22;39605;52.704;6.752;2022-08-01T01:37:43;18.10;99.90
53711;DHT22;39605;52.704;6.752;2022-08-01T01:40:11;18.10;99.90
53711;DHT22;39605;52.704;6.752;2022-08-01T01:42:38;18.00;99.90
53711;DHT22;39605;52.704;6.752;2022-08-01T01:45:06;18.00;99.90
53711;DHT22;39605;52.704;6.752;2022-08-01T01:47:32;18.00;99.90
53711;DHT22;39605;52.704;6.752;2022-08-01T01:50:00;18.00;99.90
53711;DHT22;39605;52.704;6.752;2022-08-01T01:52:27;18.00;99.90
53711;DHT22;39605;52.704;6.752;2022-08-01T01:54:55;17.90;99.90
53711;DHT22;39605;52.704;6.752;2022-08-01T01:57:22;18.00;99.90
53711;DHT22;39605;52.704;6.752;2022-08-01T01:59:49;17.90;99.90
53711;DHT22;39605;52.704;6.752;2022-08-01T02:02:17;17.90;99.90
53711;DHT22;39605;52.704;6.752;2022-08-01T02:04:45;17.90;99.90
53711;DHT22;39605;52.704;6.752;2022-08-01T02:07:16;18.00;99.90
53711;DHT22;39605;52.704;6.752;2022-08-01T02:09:43;17.90;99.90
53711;DHT22;39605;52.704;6.752;2022-08-01T02:12:12;18.00;99.90
53711;DHT22;39605;52.704;6.752;2022-08-01T02:14:38;17.90;99.90
53711;DHT22;39605;52.704;6.752;2022-08-01T02:17:11;17.90;99.90
53711;DHT22;39605;52.704;6.752;2022-08-01T02:19:37;17.90;99.90
53711;DHT22;39605;52.704;6.752;2022-08-01T02:22:11;17.90;99.90
53711;DHT22;39605;52.704;6.752;2022-08-01T02:24:52;17.90;99.90
53711;DHT22;39605;52.704;6.752;2022-08-01T02:27:44;17.90;99.90
53711;DHT22;39605;52.704;6.752;2022-08-01T02:30:14;17.90;99.90
53711;DHT22;39605;52.704;6.752;2022-08-01T02:32:47;17.90;99.90
53711;DHT22;39605;52.704;6.752;2022-08-01T02:35:28;17.90;99.90
53711;DHT22;39605;52.704;6.752;2022-08-01T02:37:56;17.90;99.90
53711;DHT22;39605;52.704;6.752;2022-08-01T02:40:23;17.80;99.90
53711;DHT22;39605;52.704;6.752;2022-08-01T02:42:52;17.90;99.90
53711;DHT22;39605;52.704;6.752;2022-08-01T02:45:24;17.90;99.90
53711;DHT22;39605;52.704;6.752;2022-08-01T02:47:52;17.90;99.90
53711;DHT22;39605;52.704;6.752;2022-08-01T02:50:19;17.80;99.90
53711;DHT22;39605;52.704;6.752;2022-08-01T02:52:48;17.80;99.90
53711;DHT22;39605;52.704;6.752;2022-08-01T02:55:15;17.80;99.90
53711;DHT22;39605;52.704;6.752;2022-08-01T02:57:42;17.80;99.90
53711;DHT22;39605;52.704;6.752;2022-08-01T03:00:10;17.80;99.90
53711;DHT22;39605;52.704;6.752;2022-08-01T03:02:36;17.80;99.90
53711;DHT22;39605;52.704;6.752;2022-08-01T03:05:02;17.80;99.90
53711;DHT22;39605;52.704;6.752;2022-08-01T03:07:29;17.70;99.90
53711;DHT22;39605;52.704;6.752;2022-08-01T03:09:56;17.70;99.90
53711;DHT22;39605;52.704;6.752;2022-08-01T03:12:26;17.70;99.90
53711;DHT22;39605;52.704;6.752;2022-08-01T03:14:55;17.70;99.90
53711;DHT22;39605;52.704;6.752;2022-08-01T03:17:24;17.80;99.90
53711;DHT22;39605;52.704;6.752;2022-08-01T03:19:51;17.70;99.90
53711;DHT22;39605;52.704;6.752;2022-08-01T03:22:18;17.70;99.90
53711;DHT22;39605;52.704;6.752;2022-08-01T03:24:50;17.70;99.90
53711;DHT22;39605;52.704;6.752;2022-08-01T03:27:18;17.70;99.90
53711;DHT22;39605;52.704;6.752;2022-08-01T03:29:45;17.70;99.90
53711;DHT22;39605;52.704;6.752;2022-08-01T03:32:12;17.70;99.90
53711;DHT22;39605;52.704;6.752;2022-08-01T03:34:38;17.60;99.90
53711;DHT22;39605;52.704;6.752;2022-08-01T03:39:52;17.60;99.90
53711;DHT22;39605;52.704;6.752;2022-08-01T03:42:24;17.70;99.90
53711;DHT22;39605;52.704;6.752;2022-08-01T03:44:54;17.70;99.90
53711;DHT22;39605;52.704;6.752;2022-08-01T03:47:26;17.60;99.90
53711;DHT22;39605;52.704;6.752;2022-08-01T03:49:55;17.70;99.90
53711;DHT22;39605;52.704;6.752;2022-08-01T03:52:22;17.70;99.90
53711;DHT22;39605;52.704;6.752;2022-08-01T03:54:49;17.60;99.90
53711;DHT22;39605;52.704;6.752;2022-08-01T03:57:17;17.60;99.90
53711;DHT22;39605;52.704;6.752;2022-08-01T03:59:43;17.60;99.90
53711;DHT22;39605;52.704;6.752;2022-08-01T04:02:11;17.60;99.90
53711;DHT22;39605;52.704;6.752;2022-08-01T04:04:37;17.60;99.90
53711;DHT22;39605;52.704;6.752;2022-08-01T04:07:03;17.60;99.90
53711;DHT22;39605;52.704;6.752;2022-08-01T04:09:31;17.60;99.90
53711;DHT22;39605;52.704;6.752;2022-08-01T04:11:58;17.70;99.90
53711;DHT22;39605;52.704;6.752;2022-08-01T04:14:26;17.60;99.90
53711;DHT22;39605;52.704;6.752;2022-08-01T04:16:51;17.70;99.90
53711;DHT22;39605;52.704;6.752;2022-08-01T04:19:17;17.60;99.90
53711;DHT22;39605;52.704;6.752;2022-08-01T04:21:43;17.60;99.90
53711;DHT22;39605;52.704;6.752;2022-08-01T04:24:17;17.60;99.90
53711;DHT22;39605;52.704;6.752;2022-08-01T04:26:45;17.60;99.90
53711;DHT22;39605;52.704;6.752;2022-08-01T04:29:13;17.60;99.90
53711;DHT22;39605;52.704;6.752;2022-08-01T04:31:42;17.60;99.90
53711;DHT22;39605;52.704;6.752;2022-08-01T04:34:12;17.50;99.90
53711;DHT22;39605;52.704;6.752;2022-08-01T04:36:40;17.50;99.90
53711;DHT22;39605;52.704;6.752;2022-08-01T04:39:08;17.60;99.90
53711;DHT22;39605;52.704;6.752;2022-08-01T04:41:34;17.50;99.90
53711;DHT22;39605;52.704;6.752;2022-08-01T04:44:02;17.50;99.90
53711;DHT22;39605;52.704;6.752;2022-08-01T04:46:28;17.50;99.90
53711;DHT22;39605;52.704;6.752;2022-08-01T04:48:55;17.50;99.90
53711;DHT22;39605;52.704;6.752;2022-08-01T04:51:21;17.60;99.90
53711;DHT22;39605;52.704;6.752;2022-08-01T04:53:50;17.50;99.90
53711;DHT22;39605;52.704;6.752;2022-08-01T04:56:16;17.50;99.90
53711;DHT22;39605;52.704;6.752;2022-08-01T04:58:43;17.50;99.90
53711;DHT22;39605;52.704;6.752;2022-08-01T05:01:10;17.50;99.90
53711;DHT22;39605;52.704;6.752;2022-08-01T05:03:36;17.60;99.90
53711;DHT22;39605;52.704;6.752;2022-08-01T05:06:01;17.60;99.90
53711;DHT22;39605;52.704;6.752;2022-08-01T05:08:28;17.60;99.90
53711;DHT22;39605;52.704;6.752;2022-08-01T05:10:55;17.60;99.90
53711;DHT22;39605;52.704;6.752;2022-08-01T05:13:20;17.60;99.90
53711;DHT22;39605;52.704;6.752;2022-08-01T05:15:46;17.60;99.90
53711;DHT22;39605;52.704;6.752;2022-08-01T05:18:12;17.60;99.90
53711;DHT22;39605;52.704;6.752;2022-08-01T05:20:37;17.60;99.90
53711;DHT22;39605;52.704;6.752;2022-08-01T05:23:04;17.60;99.90
53711;DHT22;39605;52.704;6.752;2022-08-01T05:25:30;17.60;99.90
53711;DHT22;39605;52.704;6.752;2022-08-01T05:27:55;17.60;99.90
53711;DHT22;39605;52.704;6.752;2022-08-01T05:30:21;17.70;99.90
53711;DHT22;39605;52.704;6.752;2022-08-01T05:32:47;17.70;99.90
53711;DHT22;39605;52.704;6.752;2022-08-01T05:35:12;17.70;99.90
53711;DHT22;39605;52.704;6.752;2022-08-01T05:37:38;17.70;99.90
53711;DHT22;39605;52.704;6.752;2022-08-01T05:40:04;17.70;99.90
53711;DHT22;39605;52.704;6.752;2022-08-01T05:42:30;17.70;99.90
53711;DHT22;39605;52.704;6.752;2022-08-01T05:44:56;17.70;99.90
53711;DHT22;39605;52.704;6.752;2022-08-01T05:47:22;17.70;99.90
53711;DHT22;39605;52.704;6.752;2022-08-01T05:49:47;17.60;99.90
53711;DHT22;39605;52.704;6.752;2022-08-01T05:52:13;17.60;99.90
53711;DHT22;39605;52.704;6.752;2022-08-01T05:54:39;17.50;99.90
53711;DHT22;39605;52.704;6.752;2022-08-01T05:57:05;17.60;99.90
53711;DHT22;39605;52.704;6.752;2022-08-01T05:59:31;17.60;99.90
53711;DHT22;39605;52.704;6.752;2022-08-01T06:01:57;17.50;99.90
53711;DHT22;39605;52.704;6.752;2022-08-01T06:04:23;17.40;99.90
53711;DHT22;39605;52.704;6.752;2022-08-01T06:06:48;17.40;99.90
53711;DHT22;39605;52.704;6.752;2022-08-01T06:09:14;17.40;99.90
53711;DHT22;39605;52.704;6.752;2022-08-01T06:11:40;17.40;99.90
53711;DHT22;39605;52.704;6.752;2022-08-01T06:14:06;17.40;99.90
53711;DHT22;39605;52.704;6.752;2022-08-01T06:16:32;17.40;99.90
53711;DHT22;39605;52.704;6.752;2022-08-01T06:18:57;17.50;99.90
53711;DHT22;39605;52.704;6.752;2022-08-01T06:21:23;17.60;99.90
53711;DHT22;39605;52.704;6.752;2022-08-01T06:23:49;17.70;99.90
53711;DHT22;39605;52.704;6.752;2022-08-01T06:26:17;17.90;99.90
53711;DHT22;39605;52.704;6.752;2022-08-01T06:28:43;17.90;99.90
53711;DHT22;39605;52.704;6.752;2022-08-01T06:31:08;17.90;99.90
53711;DHT22;39605;52.704;6.752;2022-08-01T06:33:36;17.90;99.90
53711;DHT22;39605;52.704;6.752;2022-08-01T06:36:02;18.00;99.90
53711;DHT22;39605;52.704;6.752;2022-08-01T06:38:28;18.00;99.90
53711;DHT22;39605;52.704;6.752;2022-08-01T06:40:54;18.10;99.90
53711;DHT22;39605;52.704;6.752;2022-08-01T06:43:19;18.10;99.90
53711;DHT22;39605;52.704;6.752;2022-08-01T06:45:46;18.10;99.90
53711;DHT22;39605;52.704;6.752;2022-08-01T06:48:12;18.00;99.90
53711;DHT22;39605;52.704;6.752;2022-08-01T06:50:38;18.00;99.90
53711;DHT22;39605;52.704;6.752;2022-08-01T06:53:04;18.00;99.90
53711;DHT22;39605;52.704;6.752;2022-08-01T06:55:30;18.00;99.90
53711;DHT22;39605;52.704;6.752;2022-08-01T06:57:55;18.00;99.90
53711;DHT22;39605;52.704;6.752;2022-08-01T07:00:23;18.10;99.90
53711;DHT22;39605;52.704;6.752;2022-08-01T07:02:54;18.10;99.90
53711;DHT22;39605;52.704;6.752;2022-08-01T07:05:20;18.30;99.90
53711;DHT22;39605;52.704;6.752;2022-08-01T07:07:46;18.40;99.90
53711;DHT22;39605;52.704;6.752;2022-08-01T07:10:12;18.40;99.90
53711;DHT22;39605;52.704;6.752;2022-08-01T07:12:38;18.40;99.90
53711;DHT22;39605;52.704;6.752;2022-08-01T07:15:05;18.40;99.90
53711;DHT22;39605;52.704;6.752;2022-08-01T07:17:31;18.40;99.90
53711;DHT22;39605;52.704;6.752;2022-08-01T07:19:57;18.30;99.90
53711;DHT22;39605;52.704;6.752;2022-08-01T07:22:22;18.40;99.90
53711;DHT22;39605;52.704;6.752;2022-08-01T07:24:48;18.30;99.90
53711;DHT22;39605;52.704;6.752;2022-08-01T07:27:14;18.40;99.90
53711;DHT22;39605;52.704;6.752;2022-08-01T07:29:39;18.40;99.90
53711;DHT22;39605;52.704;6.752;2022-08-01T07:32:05;18.40;99.90
53711;DHT22;39605;52.704;6.752;2022-08-01T07:34:31;18.50;99.90
53711;DHT22;39605;52.704;6.752;2022-08-01T07:36:56;18.50;99.90
53711;DHT22;39605;52.704;6.752;2022-08-01T07:39:22;18.60;99.90
53711;DHT22;39605;52.704;6.752;2022-08-01T07:41:48;18.60;99.90
53711;DHT22;39605;52.704;6.752;2022-08-01T07:44:13;18.70;99.90
53711;DHT22;39605;52.704;6.752;2022-08-01T07:46:39;18.70;99.90
53711;DHT22;39605;52.704;6.752;2022-08-01T07:49:05;18.70;99.90
53711;DHT22;39605;52.704;6.752;2022-08-01T07:51:31;18.90;99.90
53711;DHT22;39605;52.704;6.752;2022-08-01T07:53:56;18.80;99.90
53711;DHT22;39605;52.704;6.752;2022-08-01T07:56:22;18.90;99.90
53711;DHT22;39605;52.704;6.752;2022-08-01T07:58:49;18.90;99.90
53711;DHT22;39605;52.704;6.752;2022-08-01T08:01:15;18.90;99.90
53711;DHT22;39605;52.704;6.752;2022-08-01T08:03:41;18.90;99.90
53711;DHT22;39605;52.704;6.752;2022-08-01T08:06:06;18.90;99.90
53711;DHT22;39605;52.704;6.752;2022-08-01T08:08:32;18.90;99.90
53711;DHT22;39605;52.704;6.752;2022-08-01T08:11:00;18.90;99.90
53711;DHT22;39605;52.704;6.752;2022-08-01T08:13:26;19.00;99.90
53711;DHT22;39605;52.704;6.752;2022-08-01T08:15:52;19.00;99.90
53711;DHT22;39605;52.704;6.752;2022-08-01T08:18:18;19.00;99.90
53711;DHT22;39605;52.704;6.752;2022-08-01T08:20:44;19.10;99.90
53711;DHT22;39605;52.704;6.752;2022-08-01T08:23:10;19.00;99.90
53711;DHT22;39605;52.704;6.752;2022-08-01T08:25:54;19.00;99.90
53711;DHT22;39605;52.704;6.752;2022-08-01T08:28:19;19.20;99.90
53711;DHT22;39605;52.704;6.752;2022-08-01T08:30:45;19.20;99.90
53711;DHT22;39605;52.704;6.752;2022-08-01T08:33:11;19.30;99.90
53711;DHT22;39605;52.704;6.752;2022-08-01T08:35:39;19.40;99.90
53711;DHT22;39605;52.704;6.752;2022-08-01T08:38:05;19.50;99.90
53711;DHT22;39605;52.704;6.752;2022-08-01T08:40:32;19.60;99.90
53711;DHT22;39605;52.704;6.752;2022-08-01T08:43:00;19.70;99.90
53711;DHT22;39605;52.704;6.752;2022-08-01T08:45:27;19.60;99.90
53711;DHT22;39605;52.704;6.752;2022-08-01T08:47:53;19.60;99.90
53711;DHT22;39605;52.704;6.752;2022-08-01T08:50:20;19.70;99.90
53711;DHT22;39605;52.704;6.752;2022-08-01T08:52:46;19.70;99.90
53711;DHT22;39605;52.704;6.752;2022-08-01T08:55:16;19.80;99.90
53711;DHT22;39605;52.704;6.752;2022-08-01T08:57:44;19.80;99.90
53711;DHT22;39605;52.704;6.752;2022-08-01T09:00:10;20.00;99.90
53711;DHT22;39605;52.704;6.752;2022-08-01T09:02:41;20.00;99.90
53711;DHT22;39605;52.704;6.752;2022-08-01T09:05:08;20.20;99.90
53711;DHT22;39605;52.704;6.752;2022-08-01T09:07:34;20.30;99.90
53711;DHT22;39605;52.704;6.752;2022-08-01T09:10:00;20.30;99.90
53711;DHT22;39605;52.704;6.752;2022-08-01T09:12:25;20.40;99.90
53711;DHT22;39605;52.704;6.752;2022-08-01T09:14:51;20.50;99.90
53711;DHT22;39605;52.704;6.752;2022-08-01T09:17:19;20.50;99.90
53711;DHT22;39605;52.704;6.752;2022-08-01T09:19:53;20.60;99.90
53711;DHT22;39605;52.704;6.752;2022-08-01T09:22:21;20.70;99.90
53711;DHT22;39605;52.704;6.752;2022-08-01T09:25:09;20.70;99.90
53711;DHT22;39605;52.704;6.752;2022-08-01T09:27:36;20.70;99.90
53711;DHT22;39605;52.704;6.752;2022-08-01T09:30:18;20.70;99.90
53711;DHT22;39605;52.704;6.752;2022-08-01T09:32:55;20.70;99.90
53711;DHT22;39605;52.704;6.752;2022-08-01T09:38:14;20.70;99.90
53711;DHT22;39605;52.704;6.752;2022-08-01T09:40:45;20.70;99.90
53711;DHT22;39605;52.704;6.752;2022-08-01T09:43:12;20.60;99.90
53711;DHT22;39605;52.704;6.752;2022-08-01T09:45:37;20.60;99.90
53711;DHT22;39605;52.704;6.752;2022-08-01T09:48:08;20.60;99.90
53711;DHT22;39605;52.704;6.752;2022-08-01T09:50:45;20.80;99.90
53711;DHT22;39605;52.704;6.752;2022-08-01T09:53:11;20.90;99.90
53711;DHT22;39605;52.704;6.752;2022-08-01T09:55:38;21.00;99.90
53711;DHT22;39605;52.704;6.752;2022-08-01T09:58:04;20.90;99.90
53711;DHT22;39605;52.704;6.752;2022-08-01T10:00:31;20.90;99.90
53711;DHT22;39605;52.704;6.752;2022-08-01T10:02:59;20.90;99.90
53711;DHT22;39605;52.704;6.752;2022-08-01T10:05:34;21.00;99.90
53711;DHT22;39605;52.704;6.752;2022-08-01T10:08:04;21.20;99.90
53711;DHT22;39605;52.704;6.752;2022-08-01T10:10:31;21.30;99.90
53711;DHT22;39605;52.704;6.752;2022-08-01T10:12:58;21.40;99.90
53711;DHT22;39605;52.704;6.752;2022-08-01T10:15:25;21.50;99.90
53711;DHT22;39605;52.704;6.752;2022-08-01T10:17:56;21.50;99.90
53711;DHT22;39605;52.704;6.752;2022-08-01T10:20:28;21.60;99.90
53711;DHT22;39605;52.704;6.752;2022-08-01T10:22:55;21.60;99.90
53711;DHT22;39605;52.704;6.752;2022-08-01T10:25:21;21.60;99.90
53711;DHT22;39605;52.704;6.752;2022-08-01T10:27:49;21.50;99.90
53711;DHT22;39605;52.704;6.752;2022-08-01T10:30:17;21.60;99.90
53711;DHT22;39605;52.704;6.752;2022-08-01T10:32:45;21.60;99.90
53711;DHT22;39605;52.704;6.752;2022-08-01T10:35:11;21.70;99.90
53711;DHT22;39605;52.704;6.752;2022-08-01T10:37:44;21.80;99.90
53711;DHT22;39605;52.704;6.752;2022-08-01T10:40:14;22.00;99.90
53711;DHT22;39605;52.704;6.752;2022-08-01T10:42:44;22.10;99.90
53711;DHT22;39605;52.704;6.752;2022-08-01T10:45:13;22.20;99.90
53711;DHT22;39605;52.704;6.752;2022-08-01T10:48:02;22.30;99.90
53711;DHT22;39605;52.704;6.752;2022-08-01T10:50:32;22.30;99.90
53711;DHT22;39605;52.704;6.752;2022-08-01T10:53:23;22.20;99.90
53711;DHT22;39605;52.704;6.752;2022-08-01T10:55:56;22.20;99.90
53711;DHT22;39605;52.704;6.752;2022-08-01T10:58:37;22.20;99.90
53711;DHT22;39605;52.704;6.752;2022-08-01T11:01:24;22.30;99.90
53711;DHT22;39605;52.704;6.752;2022-08-01T11:04:03;22.50;99.90
53711;DHT22;39605;52.704;6.752;2022-08-01T11:09:03;22.50;99.90
53711;DHT22;39605;52.704;6.752;2022-08-01T11:11:29;22.60;99.90
53711;DHT22;39605;52.704;6.752;2022-08-01T11:14:02;22.60;99.90
53711;DHT22;39605;52.704;6.752;2022-08-01T11:16:34;22.40;99.90
53711;DHT22;39605;52.704;6.752;2022-08-01T11:19:01;22.30;99.90
53711;DHT22;39605;52.704;6.752;2022-08-01T11:35:18;22.90;99.90
53711;DHT22;39605;52.704;6.752;2022-08-01T11:37:46;22.80;99.90
53711;DHT22;39605;52.704;6.752;2022-08-01T11:40:23;22.70;99.90
53711;DHT22;39605;52.704;6.752;2022-08-01T11:43:15;22.70;99.90
53711;DHT22;39605;52.704;6.752;2022-08-01T11:45:54;22.70;99.90
53711;DHT22;39605;52.704;6.752;2022-08-01T11:48:26;22.80;99.90
53711;DHT22;39605;52.704;6.752;2022-08-01T11:50:56;22.90;98.20
53711;DHT22;39605;52.704;6.752;2022-08-01T11:53:22;22.80;99.90
53711;DHT22;39605;52.704;6.752;2022-08-01T11:55:52;22.60;98.50
53711;DHT22;39605;52.704;6.752;2022-08-01T11:58:25;22.50;99.90
53711;DHT22;39605;52.704;6.752;2022-08-01T12:00:56;22.40;99.90
53711;DHT22;39605;52.704;6.752;2022-08-01T12:03:30;22.30;99.30
53711;DHT22;39605;52.704;6.752;2022-08-01T12:05:58;22.30;99.90
53711;DHT22;39605;52.704;6.752;2022-08-01T12:08:28;22.40;99.90
53711;DHT22;39605;52.704;6.752;2022-08-01T12:10:54;22.50;99.90
53711;DHT22;39605;52.704;6.752;2022-08-01T12:13:20;22.50;99.50
53711;DHT22;39605;52.704;6.752;2022-08-01T12:15:46;22.40;97.90
53711;DHT22;39605;52.704;6.752;2022-08-01T12:18:13;22.30;99.60
53711;DHT22;39605;52.704;6.752;2022-08-01T12:20:41;22.30;99.90
53711;DHT22;39605;52.704;6.752;2022-08-01T12:23:11;22.40;99.90
53711;DHT22;39605;52.704;6.752;2022-08-01T12:25:37;22.40;99.50
53711;DHT22;39605;52.704;6.752;2022-08-01T12:28:10;22.30;99.90
53711;DHT22;39605;52.704;6.752;2022-08-01T12:30:37;22.30;99.90
53711;DHT22;39605;52.704;6.752;2022-08-01T12:33:05;22.30;98.50
53711;DHT22;39605;52.704;6.752;2022-08-01T12:35:32;22.30;99.90
53711;DHT22;39605;52.704;6.752;2022-08-01T12:38:03;22.40;98.30
53711;DHT22;39605;52.704;6.752;2022-08-01T12:40:33;22.40;98.60
53711;DHT22;39605;52.704;6.752;2022-08-01T12:43:09;22.40;98.50
53711;DHT22;39605;52.704;6.752;2022-08-01T12:45:45;22.50;99.80
53711;DHT22;39605;52.704;6.752;2022-08-01T12:48:14;22.50;98.20
53711;DHT22;39605;52.704;6.752;2022-08-01T12:50:45;22.50;99.90
53711;DHT22;39605;52.704;6.752;2022-08-01T12:53:13;22.50;99.20
53711;DHT22;39605;52.704;6.752;2022-08-01T12:55:50;22.50;99.20
53711;DHT22;39605;52.704;6.752;2022-08-01T12:58:17;22.70;99.90
53711;DHT22;39605;52.704;6.752;2022-08-01T13:00:46;22.60;99.10
53711;DHT22;39605;52.704;6.752;2022-08-01T13:03:14;22.60;99.90
53711;DHT22;39605;52.704;6.752;2022-08-01T13:05:49;22.40;97.60
53711;DHT22;39605;52.704;6.752;2022-08-01T13:08:16;22.30;98.80
53711;DHT22;39605;52.704;6.752;2022-08-01T13:10:43;22.20;97.70
53711;DHT22;39605;52.704;6.752;2022-08-01T13:13:10;22.30;98.50
53711;DHT22;39605;52.704;6.752;2022-08-01T13:15:38;22.40;99.30
53711;DHT22;39605;52.704;6.752;2022-08-01T13:18:25;22.50;98.50
53711;DHT22;39605;52.704;6.752;2022-08-01T13:21:17;22.60;97.90
53711;DHT22;39605;52.704;6.752;2022-08-01T13:29:08;22.90;97.70
53711;DHT22;39605;52.704;6.752;2022-08-01T13:31:35;22.80;98.30
53711;DHT22;39605;52.704;6.752;2022-08-01T13:34:01;22.70;99.50
53711;DHT22;39605;52.704;6.752;2022-08-01T13:36:27;22.60;98.00
53711;DHT22;39605;52.704;6.752;2022-08-01T13:38:54;22.60;99.90
53711;DHT22;39605;52.704;6.752;2022-08-01T13:41:39;22.70;98.30
53711;DHT22;39605;52.704;6.752;2022-08-01T13:44:05;23.00;97.20
53711;DHT22;39605;52.704;6.752;2022-08-01T13:46:31;23.20;97.90
53711;DHT22;39605;52.704;6.752;2022-08-01T13:48:57;23.50;99.40
53711;DHT22;39605;52.704;6.752;2022-08-01T13:51:22;23.60;99.90
53711;DHT22;39605;52.704;6.752;2022-08-01T13:53:48;23.70;98.10
53711;DHT22;39605;52.704;6.752;2022-08-01T13:56:14;23.80;98.50
53711;DHT22;39605;52.704;6.752;2022-08-01T13:58:41;23.80;96.10
53711;DHT22;39605;52.704;6.752;2022-08-01T14:01:07;23.70;95.30
53711;DHT22;39605;52.704;6.752;2022-08-01T14:03:33;23.50;96.20
53711;DHT22;39605;52.704;6.752;2022-08-01T14:05:58;23.50;96.50
53711;DHT22;39605;52.704;6.752;2022-08-01T14:08:24;23.60;97.80
53711;DHT22;39605;52.704;6.752;2022-08-01T14:10:50;23.60;95.40
53711;DHT22;39605;52.704;6.752;2022-08-01T14:13:17;23.50;95.40
53711;DHT22;39605;52.704;6.752;2022-08-01T14:15:43;23.70;95.40
53711;DHT22;39605;52.704;6.752;2022-08-01T14:18:09;23.80;94.80
53711;DHT22;39605;52.704;6.752;2022-08-01T14:20:35;23.80;94.60
53711;DHT22;39605;52.704;6.752;2022-08-01T14:23:02;24.00;96.20
53711;DHT22;39605;52.704;6.752;2022-08-01T14:25:28;24.10;95.50
53711;DHT22;39605;52.704;6.752;2022-08-01T14:27:53;24.10;94.60
53711;DHT22;39605;52.704;6.752;2022-08-01T14:30:20;24.20;94.40
53711;DHT22;39605;52.704;6.752;2022-08-01T14:32:45;24.20;95.60
53711;DHT22;39605;52.704;6.752;2022-08-01T14:35:11;24.20;94.00
53711;DHT22;39605;52.704;6.752;2022-08-01T14:37:37;24.40;95.30
53711;DHT22;39605;52.704;6.752;2022-08-01T14:40:03;24.30;91.30
53711;DHT22;39605;52.704;6.752;2022-08-01T14:42:34;24.30;92.80
53711;DHT22;39605;52.704;6.752;2022-08-01T14:45:00;24.10;92.60
53711;DHT22;39605;52.704;6.752;2022-08-01T14:47:26;23.70;91.90
53711;DHT22;39605;52.704;6.752;2022-08-01T14:49:51;23.40;92.00
53711;DHT22;39605;52.704;6.752;2022-08-01T14:52:17;23.20;92.40
53711;DHT22;39605;52.704;6.752;2022-08-01T14:54:43;23.20;96.10
53711;DHT22;39605;52.704;6.752;2022-08-01T14:57:09;23.10;95.10
53711;DHT22;39605;52.704;6.752;2022-08-01T14:59:35;23.00;94.10
53711;DHT22;39605;52.704;6.752;2022-08-01T15:02:01;22.90;93.20
53711;DHT22;39605;52.704;6.752;2022-08-01T15:04:27;22.80;94.70
53711;DHT22;39605;52.704;6.752;2022-08-01T15:06:53;22.90;91.80
53711;DHT22;39605;52.704;6.752;2022-08-01T15:09:19;23.10;90.90
53711;DHT22;39605;52.704;6.752;2022-08-01T15:11:44;23.20;94.30
53711;DHT22;39605;52.704;6.752;2022-08-01T15:14:12;23.40;93.40
53711;DHT22;39605;52.704;6.752;2022-08-01T15:16:56;23.50;96.30
53711;DHT22;39605;52.704;6.752;2022-08-01T15:19:22;23.50;92.50
53711;DHT22;39605;52.704;6.752;2022-08-01T15:21:47;23.60;93.00
53711;DHT22;39605;52.704;6.752;2022-08-01T15:24:13;23.60;92.90
53711;DHT22;39605;52.704;6.752;2022-08-01T15:26:39;23.70;93.00
53711;DHT22;39605;52.704;6.752;2022-08-01T15:29:04;23.70;92.70
53711;DHT22;39605;52.704;6.752;2022-08-01T15:31:30;23.60;91.70
53711;DHT22;39605;52.704;6.752;2022-08-01T15:33:56;23.60;89.50
53711;DHT22;39605;52.704;6.752;2022-08-01T15:36:24;23.40;90.00
53711;DHT22;39605;52.704;6.752;2022-08-01T15:38:50;23.40;92.50
53711;DHT22;39605;52.704;6.752;2022-08-01T15:41:16;23.10;88.60
53711;DHT22;39605;52.704;6.752;2022-08-01T15:43:41;23.00;92.30
53711;DHT22;39605;52.704;6.752;2022-08-01T15:46:07;22.90;89.40
53711;DHT22;39605;52.704;6.752;2022-08-01T15:48:32;22.90;91.40
53711;DHT22;39605;52.704;6.752;2022-08-01T15:50:58;22.80;87.90
53711;DHT22;39605;52.704;6.752;2022-08-01T15:53:24;22.80;92.00
53711;DHT22;39605;52.704;6.752;2022-08-01T15:55:49;22.70;90.80
53711;DHT22;39605;52.704;6.752;2022-08-01T15:58:15;22.80;92.60
53711;DHT22;39605;52.704;6.752;2022-08-01T16:00:41;22.80;92.30
53711;DHT22;39605;52.704;6.752;2022-08-01T16:03:07;22.90;93.00
53711;DHT22;39605;52.704;6.752;2022-08-01T16:05:34;22.80;92.50
53711;DHT22;39605;52.704;6.752;2022-08-01T16:08:01;22.80;92.00
53711;DHT22;39605;52.704;6.752;2022-08-01T16:10:28;22.70;92.00
53711;DHT22;39605;52.704;6.752;2022-08-01T16:12:54;22.70;93.90